メインページ
METAR-TAF:

METAR-TAF

空港 :

ラバト=サレ空港

ラバト, モロッコ

緯度: 34-03N, 経度: 006-46W, 海抜: 84m

現時点の気象観測

当レポートは18分前の10:00(UTC)に作成
西/南西の風 6kt
気温 21°C
湿度 64%
気圧 1017 hPa
視程: 6000m
高度2000ftの雲は散在している
高度10000ftの千切れ雲あり

METAR: GMME 211000Z 25006KT 6000 SCT020 BKN100 21/14 Q1017 NOSIG

時間: 11:18 (10:18 UTC)

予報

当レポートは5時間18分前の05:00(UTC)に作成
予報は21日の 06時(UTC)から 22日の 12時(UTC)まで有効
北西の風 8kt
視程10km以上
高度2000ftの雲は散在している
高度10000ftの雲は散在している
21日の 18時(UTC)から 21日の 20時(UTC)まで徐々に
西の風 6kt
視程: 6000m
高度1000ftの雲は散在している
22日の 00時(UTC)から 22日の 09時(UTC)まで一時的に
変向風 2kt
視程: 3000m
高度800ftの雲は散在している
高度1500ftの千切れ雲あり
22日の 04時(UTC)から 22日の 08時(UTC)まで一時的に
の風 kt
視程: 0500m
高度500ftの千切れ雲あり

TAF: GMME 210500Z 2106/2212 32008KT 9999 SCT020 SCT100 BECMG 2118/2120 26006KT 6000 SCT010 TEMPO 2200/2209 VRB02KT 3000 BR SCT008 BKN015 TEMPO 2204/2208 00000KT 0500 FG BKN005

4,000以上の空港の気象観測と天気予報(METAR報とTAF報)

利用可能な観測所は地図上に黄色い丸と赤い丸で示す。

丸の上にカーソルを重ねると観測所名を参照できる。

次にクリックすると気象観測と天気予報を参照できる。

マップの切り替え:黒色「×」印の緑ボタンをクリックして拡大、「-」印の緑ボタンをクリックして縮小、緑色の三角印をクリックして隣りの地図に切り替え


METAR-TAF: